createdAt,value
2018-03-20T00:02:04.718Z,83.06
2018-03-20T00:04:32.350Z,82.81
2018-03-20T00:06:59.947Z,83.99
2018-03-20T00:09:27.584Z,84.85
2018-03-20T00:11:55.184Z,83.68
2018-03-20T00:14:22.782Z,82.99
2018-03-20T00:16:50.424Z,82.64
2018-03-20T00:19:18.067Z,83.70
2018-03-20T00:21:45.710Z,83.61
2018-03-20T00:24:13.351Z,83.59
2018-03-20T00:26:40.944Z,83.76
2018-03-20T00:29:08.539Z,84.10
2018-03-20T00:31:36.162Z,82.15
2018-03-20T00:34:03.774Z,83.09
2018-03-20T00:36:31.468Z,84.01
2018-03-20T00:38:59.132Z,83.84
2018-03-20T00:41:26.743Z,82.93
2018-03-20T00:43:54.387Z,83.28
2018-03-20T00:46:21.975Z,83.44
2018-03-20T00:48:49.567Z,82.44
2018-03-20T00:51:17.203Z,82.62
2018-03-20T00:53:44.794Z,82.34
2018-03-20T00:56:12.414Z,83.95
2018-03-20T00:58:40.036Z,83.87
2018-03-20T01:01:07.647Z,83.68
2018-03-20T01:03:35.315Z,84.80
2018-03-20T01:06:02.906Z,84.91
2018-03-20T01:08:30.539Z,83.69
2018-03-20T01:10:58.138Z,85.40
2018-03-20T01:13:25.723Z,85.32
2018-03-20T01:15:53.342Z,86.11
2018-03-20T01:18:20.926Z,85.76
2018-03-20T01:20:48.543Z,85.87
2018-03-20T01:23:16.158Z,85.89
2018-03-20T01:25:43.766Z,86.07
2018-03-20T01:28:11.375Z,85.43
2018-03-20T01:30:39.007Z,85.01
2018-03-20T01:33:06.599Z,84.46
2018-03-20T01:35:34.182Z,84.05
2018-03-20T01:38:01.822Z,84.39
2018-03-20T01:40:29.427Z,84.74
2018-03-20T01:42:57.010Z,84.30
2018-03-20T01:45:24.655Z,85.17
2018-03-20T01:47:52.255Z,85.87
2018-03-20T01:50:19.864Z,85.49
2018-03-20T01:52:47.517Z,84.99
2018-03-20T01:55:15.122Z,86.21
2018-03-20T01:57:42.707Z,86.39
2018-03-20T02:00:10.335Z,86.06
2018-03-20T02:02:37.931Z,85.86
2018-03-20T02:05:05.551Z,85.86
2018-03-20T02:07:33.134Z,85.67
2018-03-20T02:10:00.735Z,86.15
2018-03-20T02:12:28.332Z,86.31
2018-03-20T02:14:55.910Z,85.93
2018-03-20T02:17:23.566Z,85.99
2018-03-20T02:19:51.152Z,85.81
2018-03-20T02:22:18.766Z,86.61
2018-03-20T02:24:46.386Z,86.75
2018-03-20T02:27:14.014Z,86.18
2018-03-20T02:29:41.599Z,86.67
2018-03-20T02:32:09.219Z,86.83
2018-03-20T02:34:36.805Z,85.98
2018-03-20T02:37:04.424Z,86.60
2018-03-20T02:39:32.067Z,87.18
2018-03-20T02:41:59.683Z,86.90
2018-03-20T02:44:27.344Z,87.12
2018-03-20T02:46:54.942Z,85.99
2018-03-20T02:49:22.521Z,86.72
2018-03-20T02:51:50.175Z,86.83
2018-03-20T02:54:17.755Z,86.63
2018-03-20T02:56:45.343Z,86.65
2018-03-20T02:59:13.059Z,86.91
2018-03-20T03:01:40.654Z,87.98
2018-03-20T03:04:08.283Z,87.40
2018-03-20T03:06:36.018Z,87.19
2018-03-20T03:09:03.646Z,86.51
2018-03-20T03:11:31.238Z,87.13
2018-03-20T03:13:58.838Z,86.93
2018-03-20T03:16:26.423Z,87.06
2018-03-20T03:18:54.062Z,86.28
2018-03-20T03:21:21.665Z,85.91
2018-03-20T03:23:49.285Z,86.51
2018-03-20T03:26:16.894Z,87.02
2018-03-20T03:28:44.543Z,87.34
2018-03-20T03:31:12.187Z,87.27
2018-03-20T03:33:39.783Z,86.57
2018-03-20T03:36:07.403Z,87.63
2018-03-20T03:38:35.039Z,87.88
2018-03-20T03:41:02.666Z,88.17
2018-03-20T03:43:30.355Z,87.67
2018-03-20T03:45:58.051Z,88.43
2018-03-20T03:48:25.695Z,88.66
2018-03-20T03:50:53.283Z,88.87
2018-03-20T03:53:20.920Z,88.68
2018-03-20T03:55:48.511Z,89.08
2018-03-20T03:58:16.105Z,89.24
2018-03-20T04:00:43.759Z,89.28
2018-03-20T04:03:11.346Z,88.99
2018-03-20T04:05:39.224Z,88.94
2018-03-20T04:08:06.847Z,88.73
2018-03-20T04:10:34.449Z,88.58
2018-03-20T04:13:02.094Z,88.63
2018-03-20T04:15:29.755Z,88.61
2018-03-20T04:17:57.378Z,88.71
2018-03-20T04:20:25.096Z,88.16
2018-03-20T04:22:52.835Z,87.97
2018-03-20T04:25:20.432Z,88.37
2018-03-20T04:27:48.063Z,88.42
2018-03-20T04:30:15.717Z,88.65
2018-03-20T04:32:43.303Z,88.54
2018-03-20T04:35:10.927Z,88.02
2018-03-20T04:37:38.514Z,88.71
2018-03-20T04:40:06.157Z,88.67
2018-03-20T04:42:33.770Z,88.70
2018-03-20T04:45:01.475Z,88.64
2018-03-20T04:47:29.107Z,88.60
2018-03-20T04:49:56.697Z,88.93
2018-03-20T04:52:24.382Z,88.95
2018-03-20T04:54:51.979Z,88.84
2018-03-20T04:57:19.614Z,88.89
2018-03-20T04:59:47.263Z,88.78
2018-03-20T05:02:14.905Z,89.03
2018-03-20T05:04:42.504Z,88.43
2018-03-20T05:07:10.154Z,88.90
2018-03-20T05:09:37.767Z,88.00
2018-03-20T05:12:05.439Z,87.76
2018-03-20T05:14:33.063Z,88.44
2018-03-20T05:17:00.695Z,88.43
2018-03-20T05:22:49.155Z,88.88
2018-03-20T05:25:16.800Z,88.53
2018-03-20T05:27:44.446Z,88.45
2018-03-20T05:30:12.162Z,88.27
2018-03-20T05:32:39.798Z,88.45
2018-03-20T05:35:07.436Z,88.00
2018-03-20T05:37:35.127Z,88.17
2018-03-20T05:40:02.790Z,88.78
2018-03-20T05:42:30.427Z,88.42
2018-03-20T05:44:58.055Z,88.25
2018-03-20T05:47:28.126Z,87.88
2018-03-20T05:50:01.366Z,87.70
2018-03-20T05:52:29.919Z,88.17
2018-03-20T05:54:57.547Z,87.75
2018-03-20T05:57:25.195Z,87.55
2018-03-20T05:59:52.799Z,87.33
2018-03-20T06:02:20.433Z,86.73
2018-03-20T06:04:48.067Z,86.48
2018-03-20T06:07:15.814Z,86.52
2018-03-20T06:09:43.414Z,86.55
2018-03-20T06:18:54.080Z,86.62
2018-03-20T06:21:21.662Z,86.08
2018-03-20T06:23:49.243Z,86.13
2018-03-20T06:26:16.886Z,85.80
2018-03-20T06:28:44.470Z,85.50
2018-03-20T06:31:12.095Z,85.30
2018-03-20T06:33:39.723Z,85.12
2018-03-20T06:36:07.322Z,84.55
2018-03-20T06:38:34.911Z,85.17
2018-03-20T06:41:02.590Z,84.86
2018-03-20T06:43:30.187Z,84.37
2018-03-20T06:45:57.858Z,84.49
2018-03-20T06:48:25.441Z,83.98
2018-03-20T06:50:53.608Z,83.12
2018-03-20T06:53:21.262Z,83.40
2018-03-20T06:55:50.096Z,81.67
2018-03-20T06:58:17.715Z,82.47
2018-03-20T07:00:45.478Z,81.76
2018-03-20T07:03:13.067Z,79.94
2018-03-20T07:05:40.687Z,78.68
2018-03-20T07:08:08.301Z,78.91
2018-03-20T07:10:35.895Z,80.11
2018-03-20T07:13:03.595Z,80.27
2018-03-20T07:15:31.191Z,78.89
2018-03-20T07:17:58.779Z,78.85
2018-03-20T07:20:26.438Z,77.94
2018-03-20T07:22:54.046Z,77.70
2018-03-20T07:25:21.666Z,76.47
2018-03-20T07:27:49.243Z,77.16
2018-03-20T07:30:16.823Z,76.55
2018-03-20T07:32:44.482Z,73.98
2018-03-20T07:35:12.235Z,71.96
2018-03-20T07:37:39.959Z,69.22
2018-03-20T07:40:07.671Z,64.26
2018-03-20T07:42:35.286Z,65.14
2018-03-20T07:45:02.884Z,64.50
2018-03-20T07:47:30.506Z,65.46
2018-03-20T07:49:58.102Z,65.17
2018-03-20T07:52:25.864Z,62.41
2018-03-20T07:54:53.489Z,59.66
2018-03-20T07:57:21.265Z,59.92
2018-03-20T07:59:48.927Z,58.63
2018-03-20T08:02:16.543Z,54.75
2018-03-20T08:04:44.148Z,54.47
2018-03-20T08:07:11.766Z,55.22
2018-03-20T08:09:39.387Z,53.37
2018-03-20T08:12:07.010Z,53.10
2018-03-20T08:14:34.608Z,52.19
2018-03-20T08:17:02.259Z,52.96
2018-03-20T08:19:29.984Z,54.69
2018-03-20T08:21:57.653Z,50.25
2018-03-20T08:24:25.275Z,50.41
2018-03-20T08:26:52.921Z,52.73
2018-03-20T08:29:20.597Z,52.92
2018-03-20T08:31:48.219Z,51.13
2018-03-20T08:34:15.795Z,50.03
2018-03-20T08:36:43.477Z,47.85
2018-03-20T08:39:11.078Z,47.86
2018-03-20T08:41:38.671Z,49.17
2018-03-20T08:44:06.304Z,49.12
2018-03-20T08:46:33.893Z,48.74
2018-03-20T08:49:01.515Z,47.13
2018-03-20T08:51:29.348Z,45.90
2018-03-20T08:53:56.968Z,45.71
2018-03-20T08:56:24.603Z,47.29
2018-03-20T08:58:52.393Z,45.54
2018-03-20T09:01:20.004Z,45.81
2018-03-20T09:03:47.639Z,44.26
2018-03-20T09:06:15.231Z,45.81
2018-03-20T09:08:43.629Z,45.42
2018-03-20T09:11:11.422Z,43.00
2018-03-20T09:13:39.155Z,42.47
2018-03-20T09:16:06.791Z,43.47
2018-03-20T09:18:34.382Z,42.13
2018-03-20T09:21:01.968Z,42.32
2018-03-20T09:23:29.587Z,43.79
2018-03-20T09:25:57.199Z,43.12
2018-03-20T09:28:24.791Z,44.86
2018-03-20T09:30:52.477Z,39.91
2018-03-20T09:33:20.067Z,40.58
2018-03-20T09:35:47.684Z,42.90
2018-03-20T09:38:15.271Z,44.26
2018-03-20T09:40:42.859Z,41.21
2018-03-20T09:43:10.486Z,40.20
2018-03-20T09:45:38.074Z,41.18
2018-03-20T09:48:05.685Z,39.03
2018-03-20T09:50:33.431Z,40.70
2018-03-20T09:53:01.025Z,41.65
2018-03-20T09:55:28.619Z,41.38
2018-03-20T09:57:56.339Z,40.20
2018-03-20T10:00:23.935Z,39.94
2018-03-20T10:02:51.554Z,38.51
2018-03-20T10:05:19.172Z,40.32
2018-03-20T10:07:46.795Z,38.51
2018-03-20T10:10:14.425Z,38.68
2018-03-20T10:12:42.012Z,36.86
2018-03-20T10:15:09.640Z,36.93
2018-03-20T10:17:37.291Z,37.43
2018-03-20T10:20:04.907Z,36.99
2018-03-20T10:22:32.531Z,39.57
2018-03-20T10:25:00.164Z,37.80
2018-03-20T10:27:27.739Z,37.84
2018-03-20T10:29:55.403Z,37.88
2018-03-20T10:32:22.987Z,39.33
2018-03-20T10:34:50.605Z,36.88
2018-03-20T10:37:18.214Z,37.03
2018-03-20T10:39:45.803Z,35.54
2018-03-20T10:42:13.427Z,35.00
2018-03-20T10:44:41.033Z,37.07
2018-03-20T10:47:08.654Z,34.90
2018-03-20T10:49:36.405Z,35.22
2018-03-20T10:52:03.987Z,35.70
2018-03-20T10:54:31.584Z,34.32
2018-03-20T10:56:59.219Z,36.42
2018-03-20T10:59:26.847Z,35.83
2018-03-20T11:01:55.167Z,35.72
2018-03-20T11:04:22.791Z,33.35
2018-03-20T11:06:50.415Z,33.59
2018-03-20T11:09:18.027Z,33.67
2018-03-20T11:11:45.647Z,33.41
2018-03-20T11:14:13.248Z,34.89
2018-03-20T11:16:40.847Z,35.49
2018-03-20T11:19:08.515Z,39.09
2018-03-20T11:21:36.097Z,35.42
2018-03-20T11:24:03.711Z,34.74
2018-03-20T11:26:31.367Z,33.39
2018-03-20T11:28:58.952Z,37.64
2018-03-20T11:31:26.535Z,36.77
2018-03-20T11:33:54.274Z,36.82
2018-03-20T11:36:21.914Z,35.22
2018-03-20T11:38:49.515Z,36.42
2018-03-20T11:41:17.171Z,36.82
2018-03-20T11:43:44.753Z,38.90
2018-03-20T11:46:12.359Z,38.35
2018-03-20T11:48:39.975Z,38.72
2018-03-20T11:51:07.558Z,37.36
2018-03-20T11:53:35.152Z,39.39
2018-03-20T11:56:02.796Z,38.99
2018-03-20T11:58:30.379Z,39.36
2018-03-20T12:00:57.975Z,38.00
2018-03-20T12:03:25.644Z,35.59
2018-03-20T12:05:53.392Z,36.14
2018-03-20T12:08:32.782Z,34.98
2018-03-20T12:11:00.383Z,33.97
2018-03-20T12:13:27.971Z,36.20
2018-03-20T12:15:55.594Z,34.12
2018-03-20T12:18:23.174Z,34.58
2018-03-20T12:20:50.786Z,33.12
2018-03-20T12:23:18.404Z,35.38
2018-03-20T12:25:45.983Z,32.95
2018-03-20T12:28:13.568Z,32.72
2018-03-20T12:30:41.187Z,34.89
2018-03-20T12:33:08.776Z,36.95
2018-03-20T12:35:36.363Z,37.23
2018-03-20T12:38:04.009Z,37.26
2018-03-20T12:40:31.619Z,38.61
2018-03-20T12:42:59.203Z,37.80
2018-03-20T12:45:26.782Z,40.60
2018-03-20T12:47:54.375Z,36.84
2018-03-20T12:50:22.001Z,35.18
2018-03-20T12:52:49.611Z,32.96
2018-03-20T12:55:17.206Z,33.73
2018-03-20T12:57:44.796Z,31.08
2018-03-20T13:00:12.387Z,32.65
2018-03-20T13:02:40.020Z,35.69
2018-03-20T13:05:07.672Z,38.35
2018-03-20T13:07:35.251Z,38.40
2018-03-20T13:10:02.872Z,33.49
2018-03-20T13:12:30.483Z,32.45
2018-03-20T13:14:58.146Z,30.61
2018-03-20T13:17:25.747Z,30.76
2018-03-20T13:19:53.339Z,31.80
2018-03-20T13:22:21.022Z,31.63
2018-03-20T13:24:48.634Z,33.39
2018-03-20T13:27:16.227Z,31.45
2018-03-20T13:29:43.823Z,32.09
2018-03-20T13:32:11.416Z,31.65
2018-03-20T13:34:39.078Z,31.22
2018-03-20T13:37:06.695Z,30.10
2018-03-20T13:39:34.275Z,29.42
2018-03-20T13:42:01.863Z,30.03
2018-03-20T13:44:29.466Z,32.62
2018-03-20T13:46:57.091Z,31.29
2018-03-20T13:49:24.676Z,32.01
2018-03-20T13:51:52.279Z,30.27
2018-03-20T13:54:19.904Z,29.11
2018-03-20T13:56:47.488Z,29.04
2018-03-20T13:59:15.086Z,29.29
2018-03-20T14:01:42.687Z,29.54
2018-03-20T14:04:10.276Z,31.29
2018-03-20T14:06:37.907Z,32.09
2018-03-20T14:09:05.496Z,34.53
2018-03-20T14:11:33.111Z,35.56
2018-03-20T14:14:00.732Z,37.48
2018-03-20T14:16:28.330Z,37.77
2018-03-20T14:18:55.978Z,37.08
2018-03-20T14:21:23.564Z,37.47
2018-03-20T14:23:51.147Z,38.15
2018-03-20T14:26:18.762Z,37.36
2018-03-20T14:28:46.366Z,38.60
2018-03-20T14:31:13.986Z,38.61
2018-03-20T14:33:41.579Z,39.01
2018-03-20T14:36:09.166Z,38.78
2018-03-20T14:38:36.802Z,39.16
2018-03-20T14:41:04.384Z,40.15
2018-03-20T14:43:32.011Z,39.34
2018-03-20T14:45:59.682Z,40.87
2018-03-20T14:48:27.298Z,41.38
2018-03-20T14:50:54.910Z,39.24
2018-03-20T14:53:22.496Z,39.58
2018-03-20T14:55:50.083Z,39.53
2018-03-20T14:58:17.706Z,38.58
2018-03-20T15:00:45.318Z,36.71
2018-03-20T15:03:12.930Z,35.95
2018-03-20T15:05:40.579Z,35.30
2018-03-20T15:08:08.191Z,33.97
2018-03-20T15:10:35.828Z,34.34
2018-03-20T15:13:03.553Z,36.04
2018-03-20T15:15:31.155Z,37.26
2018-03-20T15:17:58.758Z,39.04
2018-03-20T15:20:26.379Z,40.63
2018-03-20T15:22:54.004Z,43.34
2018-03-20T15:25:21.644Z,44.22
2018-03-20T15:27:49.274Z,44.69
2018-03-20T15:30:16.858Z,45.29
2018-03-20T15:32:44.479Z,46.87
2018-03-20T15:35:12.107Z,47.81
2018-03-20T15:37:39.731Z,48.52
2018-03-20T15:40:07.331Z,48.10
2018-03-20T15:42:34.919Z,48.19
2018-03-20T15:45:02.532Z,49.08
2018-03-20T15:47:30.131Z,48.98
2018-03-20T15:49:57.722Z,50.33
2018-03-20T15:52:25.423Z,49.83
2018-03-20T15:54:53.019Z,49.62
2018-03-20T15:57:20.599Z,50.98
2018-03-20T15:59:48.211Z,50.51
2018-03-20T16:02:15.835Z,50.07
2018-03-20T16:04:43.458Z,48.97
2018-03-20T16:07:11.038Z,48.79
2018-03-20T16:09:38.627Z,49.05
2018-03-20T16:12:06.305Z,49.63
2018-03-20T16:14:33.943Z,50.03
2018-03-20T16:17:01.573Z,49.66
2018-03-20T16:19:29.249Z,50.48
2018-03-20T16:21:56.912Z,50.46
2018-03-20T16:24:24.499Z,51.25
2018-03-20T16:26:53.074Z,51.56
2018-03-20T16:29:20.702Z,51.64
2018-03-20T16:31:48.303Z,52.17
2018-03-20T16:34:15.955Z,53.24
2018-03-20T16:36:43.568Z,53.81
2018-03-20T16:39:11.155Z,54.28
2018-03-20T16:41:38.795Z,54.22
2018-03-20T16:44:06.391Z,54.37
2018-03-20T16:46:34.027Z,54.75
2018-03-20T16:49:01.684Z,56.22
2018-03-20T16:51:29.318Z,56.32
2018-03-20T16:53:56.950Z,56.09
2018-03-20T16:56:24.547Z,55.77
2018-03-20T16:58:52.163Z,57.22
2018-03-20T17:01:19.795Z,57.95
2018-03-20T17:03:47.379Z,58.19
2018-03-20T17:06:15.023Z,57.85
2018-03-20T17:08:42.656Z,58.02
2018-03-20T17:11:10.272Z,57.88
2018-03-20T17:13:37.876Z,57.56
2018-03-20T17:16:05.579Z,56.86
2018-03-20T17:18:33.238Z,57.15
2018-03-20T17:21:00.843Z,58.15
2018-03-20T17:23:28.445Z,57.45
2018-03-20T17:25:56.082Z,57.50
2018-03-20T17:28:24.063Z,57.93
2018-03-20T17:30:51.775Z,59.21
2018-03-20T17:33:19.411Z,58.01
2018-03-20T17:35:47.027Z,58.78
2018-03-20T17:38:14.639Z,59.33
2018-03-20T17:40:42.280Z,58.91
2018-03-20T17:43:09.982Z,58.67
2018-03-20T17:45:38.355Z,58.36
2018-03-20T17:48:05.991Z,57.48
2018-03-20T17:50:33.615Z,57.63
2018-03-20T17:53:01.331Z,58.82
2018-03-20T17:55:28.927Z,57.55
2018-03-20T17:57:56.531Z,57.89
2018-03-20T18:00:24.221Z,59.62
2018-03-20T18:02:51.826Z,60.55
2018-03-20T18:05:19.431Z,58.66
2018-03-20T18:07:47.067Z,59.05
2018-03-20T18:10:14.671Z,58.82
2018-03-20T18:12:42.277Z,59.14
2018-03-20T18:15:09.890Z,59.82
2018-03-20T18:17:37.507Z,60.54
2018-03-20T18:20:05.150Z,61.28
2018-03-20T18:22:32.760Z,61.25
2018-03-20T18:25:00.346Z,61.60
2018-03-20T18:27:27.995Z,62.55
2018-03-20T18:29:55.675Z,63.69
2018-03-20T18:32:23.426Z,66.36
2018-03-20T18:34:51.122Z,67.61
2018-03-20T18:37:18.827Z,68.70
2018-03-20T18:39:46.451Z,69.76
2018-03-20T18:42:14.167Z,70.41
2018-03-20T18:44:41.817Z,71.11
2018-03-20T18:47:09.437Z,72.96
2018-03-20T18:49:37.149Z,73.08
2018-03-20T18:52:04.848Z,73.73
2018-03-20T18:54:32.465Z,74.31
2018-03-20T18:57:00.084Z,74.20
2018-03-20T18:59:27.705Z,74.30
2018-03-20T19:01:55.366Z,74.52
2018-03-20T19:04:22.996Z,74.48
2018-03-20T19:06:50.702Z,75.38
2018-03-20T19:09:18.355Z,75.35
2018-03-20T19:11:46.071Z,75.82
2018-03-20T19:14:13.970Z,74.87
2018-03-20T19:16:41.715Z,74.69
2018-03-20T19:19:09.348Z,74.51
2018-03-20T19:21:37.070Z,74.99
2018-03-20T19:24:04.739Z,75.24
2018-03-20T19:26:32.421Z,75.04
2018-03-20T19:29:00.031Z,75.18
2018-03-20T19:31:27.726Z,74.87
2018-03-20T19:33:55.473Z,74.57
2018-03-20T19:36:23.111Z,75.36
2018-03-20T19:38:50.712Z,75.28
2018-03-20T19:41:19.325Z,75.28
2018-03-20T19:43:46.923Z,75.11
2018-03-20T19:46:14.546Z,73.68
2018-03-20T19:48:42.195Z,75.28
2018-03-20T19:51:09.838Z,75.02
2018-03-20T19:53:37.516Z,75.31
2018-03-20T19:56:05.202Z,75.32
2018-03-20T19:58:32.859Z,75.06
2018-03-20T20:01:00.464Z,74.65
2018-03-20T20:03:28.126Z,74.83
2018-03-20T20:05:55.803Z,74.93
2018-03-20T20:08:23.411Z,74.88
2018-03-20T20:10:51.007Z,74.70
2018-03-20T20:13:18.631Z,74.61
2018-03-20T20:15:46.326Z,75.27
2018-03-20T20:18:13.973Z,74.94
2018-03-20T20:20:41.785Z,74.99
2018-03-20T20:23:09.444Z,74.60
2018-03-20T20:25:37.076Z,75.29
2018-03-20T20:28:04.696Z,75.07
2018-03-20T20:30:33.106Z,74.85
2018-03-20T20:33:00.968Z,74.42
2018-03-20T20:35:28.603Z,75.04
2018-03-20T20:37:56.222Z,75.05
2018-03-20T20:40:23.848Z,74.65
2018-03-20T20:42:51.487Z,74.68
2018-03-20T20:45:19.167Z,73.84
2018-03-20T20:47:46.821Z,74.46
2018-03-20T20:50:14.446Z,74.44
2018-03-20T20:52:42.041Z,73.78
2018-03-20T20:55:09.696Z,73.84
2018-03-20T20:57:37.372Z,74.08
2018-03-20T21:00:04.943Z,75.26
2018-03-20T21:02:32.602Z,75.75
2018-03-20T21:05:00.223Z,74.65
2018-03-20T21:07:27.806Z,75.26
2018-03-20T21:09:55.441Z,75.06
2018-03-20T21:12:23.030Z,75.78
2018-03-20T21:14:50.618Z,75.06
2018-03-20T21:17:18.282Z,75.31
2018-03-20T21:19:45.898Z,75.67
2018-03-20T21:22:13.491Z,75.29
2018-03-20T21:24:41.126Z,75.91
2018-03-20T21:27:08.739Z,75.70
2018-03-20T21:29:36.342Z,75.78
2018-03-20T21:32:04.015Z,75.98
2018-03-20T21:34:31.624Z,76.31
2018-03-20T21:36:59.235Z,75.54
2018-03-20T21:39:26.857Z,75.90
2018-03-20T21:41:54.463Z,76.26
2018-03-20T21:44:22.067Z,76.34
2018-03-20T21:46:49.712Z,76.37
2018-03-20T21:49:17.319Z,77.26
2018-03-20T21:51:44.930Z,76.82
2018-03-20T21:54:12.531Z,76.91
2018-03-20T21:56:40.126Z,76.82
2018-03-20T21:59:07.767Z,76.57
2018-03-20T22:01:35.361Z,76.85
2018-03-20T22:04:02.946Z,77.29
2018-03-20T22:06:30.631Z,75.70
2018-03-20T22:08:58.235Z,75.81
2018-03-20T22:11:25.855Z,75.85
2018-03-20T22:13:53.451Z,76.49
2018-03-20T22:16:21.074Z,75.94
2018-03-20T22:18:48.763Z,76.21
2018-03-20T22:21:16.408Z,75.99
2018-03-20T22:23:44.033Z,75.83
2018-03-20T22:26:11.664Z,76.09
2018-03-20T22:28:39.327Z,74.68
2018-03-20T22:31:06.981Z,74.39
2018-03-20T22:33:34.575Z,74.05
2018-03-20T22:36:02.207Z,74.15
2018-03-20T22:38:29.811Z,74.51
2018-03-20T22:40:57.415Z,74.23
2018-03-20T22:43:25.015Z,74.37
2018-03-20T22:45:52.596Z,74.33
2018-03-20T22:48:20.223Z,74.18
2018-03-20T22:50:47.922Z,75.46
2018-03-20T22:53:15.562Z,75.08
2018-03-20T22:55:43.294Z,73.48
2018-03-20T22:58:10.863Z,73.25
2018-03-20T23:00:38.568Z,73.83
2018-03-20T23:03:06.203Z,72.63
2018-03-20T23:05:33.789Z,72.95
2018-03-20T23:08:01.619Z,73.26
2018-03-20T23:10:29.264Z,72.64
2018-03-20T23:12:56.855Z,71.84
2018-03-20T23:15:24.472Z,72.00
2018-03-20T23:17:53.517Z,72.43
2018-03-20T23:20:21.666Z,72.00
2018-03-20T23:22:50.375Z,71.70
2018-03-20T23:25:18.108Z,72.08
2018-03-20T23:27:45.764Z,72.74
2018-03-20T23:30:13.430Z,72.18
2018-03-20T23:32:41.016Z,72.55
2018-03-20T23:35:08.666Z,72.80
2018-03-20T23:37:36.328Z,72.83
2018-03-20T23:40:04.718Z,73.27
2018-03-20T23:42:32.335Z,73.25
2018-03-20T23:45:00.019Z,72.86
2018-03-20T23:47:27.603Z,72.89
2018-03-20T23:49:55.247Z,72.77
2018-03-20T23:52:22.867Z,72.71
2018-03-20T23:54:50.474Z,73.02
2018-03-20T23:57:18.103Z,72.65
2018-03-20T23:59:45.727Z,72.75
